Terminal Aerodrome Forecast
Issued by NWS Des Moines, IA

Home | Current Version | Previous Version | Text Only | Print | Product List | Glossary On
Versions: 1 2 3 4 5 6 7 8 9 10 11 12 13 14 15 16 17 18 19 20 21 22 23 24 25 26 27 28 29 30 31 32 33 34 35 36 37 38 39 40 41 42 43 44 45 46 47 48 49 50
000
FTUS43 KDMX 291201 AAA
TAFALO
TAF AMD
KALO 291201Z 2912/3012 36005KT P6SM OVC010
      TEMPO 2912/2914 5SM BR BKN008
     FM291500 04010KT P6SM OVC025
     FM292200 08011KT P6SM BKN040
     FM301000 07015KT P6SM SCT008 BKN040=

USA.gov is the U.S. government's official web portal to all federal, state and local government web resources and services.